Time;durP1;ratioP1;P1;durP2;ratioP2;P2;SDS_P1;SDS_P2;PMS_P1;PMS_P2;Temp;Humidity;BMP_temperature;BMP_pressure;BME280_temperature;BME280_humidity;BME280_pressure;Samples;Min_cycle;Max_cycle;Signal;HPM_P1;HPM_P2
2021/01/04 00:02:53;;;;;;;82.30;41.92;;;;;;;6.58;100.00;101409.56;5034715;28;20418;-72
2021/01/04 00:05:43;;;;;;;64.78;38.85;;;;;;;6.41;100.00;101415.44;5117468;27;20012;-73
2021/01/04 00:08:44;;;;;;;71.55;42.10;;;;;;;7.03;100.00;101427.34;5116117;28;20023;-74
2021/01/04 00:11:41;;;;;;;71.38;41.50;;;;;;;7.10;100.00;101414.34;5116109;28;20024;-74
2021/01/04 00:14:46;;;;;;;62.53;37.15;;;;;;;6.43;100.00;101411.16;5116658;28;20047;-74
2021/01/04 00:18:05;;;;;;;99.82;41.58;;;;;;;6.87;100.00;101405.47;5116562;28;20043;-74
2021/01/04 00:21:00;;;;;;;70.63;40.97;;;;;;;6.79;100.00;101407.16;5115918;28;20035;-74
2021/01/04 00:24:22;;;;;;;72.38;40.58;;;;;;;6.63;100.00;101414.81;5115308;28;20087;-74
2021/01/04 00:27:32;;;;;;;80.55;44.25;;;;;;;6.68;100.00;101413.13;5115974;28;20020;-73
2021/01/04 00:30:40;;;;;;;68.22;39.92;;;;;;;6.95;100.00;101409.03;5115813;28;20055;-73
2021/01/04 00:33:31;;;;;;;100.93;44.58;;;;;;;6.41;100.00;101418.06;5115159;28;20436;-74
2021/01/04 00:36:32;;;;;;;88.35;46.28;;;;;;;6.93;100.00;101426.38;5115741;28;20111;-73
2021/01/04 00:39:26;;;;;;;71.93;41.83;;;;;;;6.84;100.00;101426.31;5113789;28;20020;-74
2021/01/04 00:42:34;;;;;;;123.45;44.60;;;;;;;6.72;100.00;101428.81;5115660;28;20069;-72
2021/01/04 00:45:28;;;;;;;86.15;43.90;;;;;;;7.27;100.00;101435.34;5115623;28;20026;-73
2021/01/04 00:48:26;;;;;;;110.80;41.88;;;;;;;6.84;100.00;101428.91;5102062;28;20046;-73
2021/01/04 00:51:17;;;;;;;129.98;42.55;;;;;;;7.25;100.00;101424.03;5116188;28;20019;-74
2021/01/04 00:54:52;;;;;;;71.05;40.45;;;;;;;7.37;100.00;101416.28;5116581;27;20058;-74
2021/01/04 00:58:14;;;;;;;78.05;39.85;;;;;;;7.33;100.00;101412.81;5054140;28;20036;-74
2021/01/04 01:01:18;;;;;;;99.15;42.45;;;;;;;7.26;100.00;101408.41;5100427;28;20454;-73
2021/01/04 01:04:28;;;;;;;84.65;39.20;;;;;;;6.99;100.00;101386.50;5115195;28;20035;-73
2021/01/04 01:07:17;;;;;;;148.75;43.30;;;;;;;6.44;100.00;101385.16;5115259;28;20139;-74
2021/01/04 01:10:09;;;;;;;98.57;38.60;;;;;;;6.06;100.00;101377.78;5099550;28;20030;-74
2021/01/04 01:13:13;;;;;;;74.40;38.05;;;;;;;6.73;100.00;101377.59;5100058;28;20056;-74
2021/01/04 01:16:07;;;;;;;80.38;38.55;;;;;;;6.70;100.00;101369.72;5116222;27;20032;-73
2021/01/04 01:19:28;;;;;;;86.32;37.97;;;;;;;6.96;100.00;101363.03;5099688;28;20331;-73
2021/01/04 01:22:28;;;;;;;82.30;37.10;;;;;;;6.97;100.00;101356.94;5082594;28;20118;-74
2021/01/04 01:25:26;;;;;;;78.50;36.13;;;;;;;7.00;100.00;101368.28;5114878;28;20015;-74
2021/01/04 01:28:46;;;;;;;82.05;34.03;;;;;;;7.11;100.00;101373.56;5114499;28;20023;-74
2021/01/04 01:31:45;;;;;;;66.32;34.90;;;;;;;7.18;100.00;101376.19;5114537;28;20023;-74
2021/01/04 01:35:02;;;;;;;78.63;34.78;;;;;;;7.04;100.00;101371.75;5114676;28;20130;-73
2021/01/04 01:38:14;;;;;;;74.13;29.15;;;;;;;6.76;100.00;101359.38;5115751;27;20024;-73
2021/01/04 01:41:20;;;;;;;65.82;29.77;;;;;;;6.71;100.00;101363.69;5100344;28;20399;-73
2021/01/04 01:44:31;;;;;;;111.10;33.95;;;;;;;6.55;100.00;101361.81;5100767;28;20024;-73
2021/01/04 01:47:46;;;;;;;119.60;37.30;;;;;;;6.55;100.00;101359.22;5114000;28;20019;-74
2021/01/04 01:50:48;;;;;;;86.63;33.80;;;;;;;6.95;100.00;101364.75;5115609;28;20019;-73
2021/01/04 01:53:52;;;;;;;76.85;32.70;;;;;;;6.94;100.00;101368.22;5114397;28;20042;-73
2021/01/04 01:57:26;;;;;;;143.90;42.33;;;;;;;7.43;100.00;101364.19;5098997;28;20034;-73
2021/01/04 02:00:21;;;;;;;86.75;33.03;;;;;;;7.67;100.00;101366.94;5107737;28;20042;-73
2021/01/04 02:03:18;;;;;;;87.78;36.72;;;;;;;7.59;100.00;101366.03;5114299;28;20368;-73
2021/01/04 02:06:28;;;;;;;52.72;32.22;;;;;;;7.45;100.00;101371.16;5113745;28;20011;-73
2021/01/04 02:09:23;;;;;;;48.47;29.73;;;;;;;7.55;100.00;101359.91;5113920;28;20463;-73
2021/01/04 02:12:16;;;;;;;81.28;34.25;;;;;;;7.71;100.00;101347.78;5114197;28;20015;-73
2021/01/04 02:15:16;;;;;;;108.03;35.25;;;;;;;7.56;100.00;101339.94;5100029;28;20027;-73
2021/01/04 02:18:22;;;;;;;67.63;31.30;;;;;;;7.48;100.00;101332.06;5115512;28;20081;-73
2021/01/04 02:21:17;;;;;;;80.03;32.13;;;;;;;7.09;100.00;101324.03;5115490;28;20058;-73
2021/01/04 02:24:15;;;;;;;68.68;35.47;;;;;;;7.29;100.00;101316.31;5114269;28;20117;-74
2021/01/04 02:27:26;;;;;;;62.95;32.50;;;;;;;7.38;100.00;101313.75;5114196;28;20015;-74
2021/01/04 02:30:13;;;;;;;90.65;32.53;;;;;;;7.16;100.00;101312.78;5101034;28;20055;-74
2021/01/04 02:32:59;;;;;;;63.83;34.25;;;;;;;7.34;100.00;101320.69;5114028;28;20035;-73
2021/01/04 02:35:47;;;;;;;99.63;34.85;;;;;;;7.31;100.00;101312.84;5098544;28;20035;-73
2021/01/04 02:38:39;;;;;;;71.13;32.00;;;;;;;7.35;100.00;101305.94;5113411;28;20051;-73
2021/01/04 02:41:37;;;;;;;58.25;31.25;;;;;;;7.63;100.00;101307.81;5113457;28;20057;-72
2021/01/04 02:44:26;;;;;;;57.03;30.23;;;;;;;7.38;100.00;101300.72;5113855;28;20041;-73
2021/01/04 02:47:43;;;;;;;74.38;31.00;;;;;;;7.22;100.00;101296.31;5114086;28;20457;-72
2021/01/04 02:50:33;;;;;;;44.45;27.63;;;;;;;7.16;100.00;101301.50;5114467;28;20024;-72
2021/01/04 02:53:22;;;;;;;45.33;25.23;;;;;;;7.09;100.00;101295.38;5116040;28;20027;-73
2021/01/04 02:56:14;;;;;;;53.05;27.83;;;;;;;7.35;100.00;101296.38;5115002;28;20406;-73
2021/01/04 02:59:09;;;;;;;47.13;24.83;;;;;;;7.34;100.00;101293.75;5118155;28;20373;-72
2021/01/04 03:02:14;;;;;;;43.63;24.77;;;;;;;7.66;100.00;101303.47;5103759;28;20056;-74
2021/01/04 03:05:00;;;;;;;43.15;24.63;;;;;;;7.86;100.00;101301.78;5117342;28;20027;-73
2021/01/04 03:08:04;;;;;;;47.15;22.52;;;;;;;7.44;100.00;101293.81;5103205;28;20088;-73
2021/01/04 03:10:50;;;;;;;44.35;23.48;;;;;;;7.41;100.00;101296.41;5116991;28;20028;-73
2021/01/04 03:13:48;;;;;;;114.63;26.20;;;;;;;7.45;100.00;101292.97;5116341;28;20069;-73
2021/01/04 03:17:08;;;;;;;45.20;24.08;;;;;;;7.66;100.00;101295.63;5117547;28;20035;-74
2021/01/04 03:19:59;;;;;;;58.55;22.27;;;;;;;6.97;100.00;101294.44;5117897;28;20038;-73
2021/01/04 03:22:47;;;;;;;70.38;25.10;;;;;;;7.53;100.00;101293.84;5117142;28;20262;-73
2021/01/04 03:25:45;;;;;;;38.13;22.92;;;;;;;7.88;100.00;101280.94;5117050;28;20028;-73
2021/01/04 03:28:32;;;;;;;46.88;25.05;;;;;;;8.22;100.00;101277.53;5101641;28;20020;-73
2021/01/04 03:31:18;;;;;;;36.53;22.17;;;;;;;8.30;100.00;101281.00;5116638;28;20024;-73
2021/01/04 03:34:04;;;;;;;37.05;22.30;;;;;;;8.27;100.00;101271.44;5116971;28;20024;-73
2021/01/04 03:36:50;;;;;;;67.72;22.98;;;;;;;8.28;100.00;101259.28;5117039;28;20038;-74
2021/01/04 03:39:36;;;;;;;48.92;21.33;;;;;;;7.41;100.00;101251.22;5103843;28;20100;-72
2021/01/04 03:42:21;;;;;;;40.60;21.55;;;;;;;7.21;100.00;101252.88;5117201;28;20038;-73
2021/01/04 03:45:08;;;;;;;54.60;23.75;;;;;;;7.49;100.00;101254.72;5116190;28;20364;-73
2021/01/04 03:47:54;;;;;;;38.85;23.02;;;;;;;7.18;100.00;101253.72;5116351;28;20069;-73
2021/01/04 03:50:39;;;;;;;76.15;37.85;;;;;;;7.39;100.00;101256.41;5116651;28;20033;-73
2021/01/04 03:53:25;;;;;;;55.55;34.00;;;;;;;7.65;100.00;101262.63;5117080;28;20031;-72
2021/01/04 03:56:15;;;;;;;62.22;25.85;;;;;;;7.41;100.00;101252.09;5117619;27;20457;-73
2021/01/04 03:59:01;;;;;;;40.13;23.73;;;;;;;7.45;100.00;101242.53;5115997;28;20078;-73
2021/01/04 04:01:52;;;;;;;42.83;23.13;;;;;;;7.37;100.00;101254.69;5116163;28;20035;-73
2021/01/04 04:04:40;;;;;;;38.88;24.98;;;;;;;7.63;100.00;101259.13;5115887;28;20062;-73
2021/01/04 04:07:26;;;;;;;42.13;25.48;;;;;;;7.62;100.00;101252.16;5101388;28;20043;-73
2021/01/04 04:10:15;;;;;;;42.35;25.25;;;;;;;7.41;100.00;101259.94;5115357;28;20047;-73
2021/01/04 04:13:01;;;;;;;47.70;25.65;;;;;;;7.66;100.00;101263.47;5102356;28;20123;-73
2021/01/04 04:15:47;;;;;;;42.15;25.25;;;;;;;7.62;100.00;101259.09;5101383;28;20451;-73
2021/01/04 04:18:33;;;;;;;35.00;21.42;;;;;;;7.05;100.00;101264.09;5101795;28;20115;-74
2021/01/04 04:21:18;;;;;;;32.50;20.67;;;;;;;6.84;100.00;101262.25;5115938;28;20039;-74
2021/01/04 04:24:05;;;;;;;41.67;24.63;;;;;;;7.49;100.00;101271.25;5115623;28;20024;-73
2021/01/04 04:26:52;;;;;;;36.70;24.27;;;;;;;7.54;100.00;101273.84;5116003;28;20031;-74
2021/01/04 04:29:40;;;;;;;39.33;23.88;;;;;;;7.73;100.00;101270.44;5116578;28;20020;-72
2021/01/04 04:32:26;;;;;;;32.72;20.83;;;;;;;7.52;100.00;101275.59;5115748;28;20380;-74
2021/01/04 04:35:12;;;;;;;35.35;22.33;;;;;;;7.42;100.00;101269.47;5115236;28;20141;-74
2021/01/04 04:37:59;;;;;;;28.70;19.85;;;;;;;7.40;100.00;101265.97;5115190;28;20024;-73
2021/01/04 04:40:48;;;;;;;80.90;24.70;;;;;;;7.24;100.00;101258.97;5116363;28;20063;-73
2021/01/04 04:43:43;;;;;;;37.13;21.17;;;;;;;6.90;100.00;101257.06;5115076;28;20027;-73
2021/01/04 04:46:40;;;;;;;36.00;21.63;;;;;;;7.12;100.00;101245.03;5115319;28;20030;-73
2021/01/04 04:50:10;;;;;;;33.90;21.60;;;;;;;7.37;100.00;101239.94;5116755;27;20024;-73
2021/01/04 04:53:28;;;;;;;32.83;19.65;;;;;;;6.57;100.00;101245.53;5105962;28;20202;-73
2021/01/04 04:56:23;;;;;;;71.38;20.73;;;;;;;6.25;100.00;101247.03;5081647;28;20403;-74
2021/01/04 04:59:22;;;;;;;47.88;20.10;;;;;;;6.18;100.00;101255.66;5115448;28;20108;-72
2021/01/04 05:02:37;;;;;;;51.22;21.30;;;;;;;6.13;100.00;101266.00;5114667;28;20023;-73
2021/01/04 05:05:30;;;;;;;45.50;20.10;;;;;;;6.20;100.00;101264.34;5115297;28;20027;-73
2021/01/04 05:08:29;;;;;;;66.57;22.42;;;;;;;5.97;100.00;101261.53;5115573;28;20085;-73
2021/01/04 05:11:20;;;;;;;41.72;20.17;;;;;;;5.81;100.00;101254.44;5115405;28;20036;-73
2021/01/04 05:14:14;;;;;;;53.67;22.00;;;;;;;5.66;100.00;101264.63;5115016;28;20389;-73
2021/01/04 05:17:18;;;;;;;32.30;19.35;;;;;;;5.78;100.00;101254.34;5115570;28;20027;-74
2021/01/04 05:20:21;;;;;;;31.90;21.38;;;;;;;5.99;100.00;101251.16;5114725;28;20027;-73
2021/01/04 05:23:41;;;;;;;35.85;18.90;;;;;;;5.93;100.00;101254.56;5099264;28;20346;-72
2021/01/04 05:26:44;;;;;;;36.30;20.55;;;;;;;6.00;100.00;101253.75;5113340;28;20023;-73
2021/01/04 05:29:33;;;;;;;38.50;21.75;;;;;;;6.34;100.00;101255.78;5114856;28;20023;-74
2021/01/04 05:32:34;;;;;;;45.58;24.55;;;;;;;6.42;100.00;101259.31;5114609;28;20030;-73
2021/01/04 05:35:20;;;;;;;47.47;26.17;;;;;;;6.48;100.00;101243.75;5100269;28;20027;-73
2021/01/04 05:38:17;;;;;;;37.80;23.92;;;;;;;6.20;100.00;101238.31;5114597;28;20369;-73
2021/01/04 05:41:25;;;;;;;39.80;21.98;;;;;;;6.02;100.00;101238.19;5115910;28;20461;-74
2021/01/04 05:44:38;;;;;;;42.03;23.95;;;;;;;6.03;100.00;101250.31;5114585;28;20031;-73
2021/01/04 05:48:01;;;;;;;60.08;25.70;;;;;;;6.29;100.00;101248.78;5114462;28;20039;-73
2021/01/04 05:51:09;;;;;;;76.90;27.23;;;;;;;5.98;100.00;101247.66;5115071;28;20023;-74
2021/01/04 05:53:55;;;;;;;45.50;28.95;;;;;;;6.56;100.00;101243.81;5114705;28;20027;-74
2021/01/04 05:56:41;;;;;;;52.55;30.80;;;;;;;6.63;100.00;101240.41;5113658;28;20522;-74
2021/01/04 05:59:26;;;;;;;60.95;33.22;;;;;;;6.53;100.00;101233.38;5113999;28;20023;-73
2021/01/04 06:02:22;;;;;;;48.83;29.25;;;;;;;6.61;100.00;101242.09;5113816;28;20027;-73
2021/01/04 06:05:14;;;;;;;68.70;29.80;;;;;;;6.81;100.00;101228.34;5114053;28;20514;-74
2021/01/04 06:08:01;;;;;;;55.40;26.95;;;;;;;6.22;100.00;101231.41;5113911;28;20428;-73
2021/01/04 06:10:46;;;;;;;45.30;25.45;;;;;;;6.18;100.00;101229.66;5113953;28;20096;-74
2021/01/04 06:13:39;;;;;;;40.70;25.95;;;;;;;6.15;100.00;101229.63;5099736;28;20165;-74
2021/01/04 06:16:26;;;;;;;45.90;24.35;;;;;;;5.87;100.00;101232.81;5114614;28;20019;-74
2021/01/04 06:19:17;;;;;;;48.40;25.60;;;;;;;6.04;100.00;101236.44;5113428;28;20034;-74
2021/01/04 06:22:16;;;;;;;59.05;24.05;;;;;;;6.08;100.00;101235.63;5114392;28;20051;-73
2021/01/04 06:25:05;;;;;;;52.65;26.17;;;;;;;6.27;100.00;101230.56;5113727;28;20077;-73
2021/01/04 06:28:01;;;;;;;50.47;26.85;;;;;;;6.18;100.00;101229.66;5114839;28;20096;-74
2021/01/04 06:31:00;;;;;;;43.38;26.85;;;;;;;6.24;100.00;101229.69;5114484;28;20062;-73
2021/01/04 06:33:57;;;;;;;71.53;28.63;;;;;;;6.34;100.00;101237.56;5104181;28;20043;-74
2021/01/04 06:36:47;;;;;;;55.20;27.10;;;;;;;6.38;100.00;101233.28;5103722;28;20065;-73
2021/01/04 06:39:34;;;;;;;47.40;27.90;;;;;;;6.86;100.00;101234.47;5118663;28;20038;-73
2021/01/04 06:42:22;;;;;;;40.70;26.20;;;;;;;6.86;100.00;101230.97;5104224;28;20049;-73
2021/01/04 06:45:26;;;;;;;53.42;28.10;;;;;;;6.33;100.00;101235.84;5117520;28;20023;-74
2021/01/04 06:48:29;;;;;;;45.58;26.75;;;;;;;6.67;100.00;101237.81;5118121;28;20047;-74
2021/01/04 06:51:46;;;;;;;48.25;28.95;;;;;;;6.76;100.00;101237.88;5117224;28;20027;-73
2021/01/04 06:54:37;;;;;;;59.45;31.67;;;;;;;6.43;100.00;101231.56;5117594;28;20444;-74
2021/01/04 06:57:55;;;;;;;66.70;27.92;;;;;;;5.99;100.00;101227.75;5117727;28;20134;-75
2021/01/04 07:00:50;;;;;;;47.33;24.70;;;;;;;6.16;100.00;101234.84;5117860;28;20016;-73
2021/01/04 07:03:49;;;;;;;93.32;25.75;;;;;;;5.83;100.00;101236.25;5117882;28;20038;-74
2021/01/04 07:07:09;;;;;;;42.83;25.65;;;;;;;6.58;100.00;101234.25;5117239;28;20024;-73
2021/01/04 07:10:13;;;;;;;45.10;26.92;;;;;;;6.61;100.00;101229.97;5117866;28;20028;-75
2021/01/04 07:13:15;;;;;;;39.50;24.95;;;;;;;6.82;100.00;101222.28;5117268;28;20035;-74
2021/01/04 07:16:15;;;;;;;46.47;27.67;;;;;;;6.94;100.00;101224.06;5118226;28;20084;-74
2021/01/04 07:19:16;;;;;;;43.78;26.50;;;;;;;6.95;100.00;101223.22;5117498;28;20035;-77
2021/01/04 07:22:14;;;;;;;46.58;27.80;;;;;;;6.61;100.00;101224.75;5116001;28;20412;-74
2021/01/04 07:25:33;;;;;;;44.38;27.40;;;;;;;6.87;100.00;101217.97;5116149;28;20494;-73
2021/01/04 07:28:43;;;;;;;50.22;28.70;;;;;;;6.85;100.00;101218.81;5113948;28;20058;-73
2021/01/04 07:31:38;;;;;;;109.95;38.35;;;;;;;7.23;100.00;101215.53;5118069;27;20084;-73
2021/01/04 07:34:55;;;;;;;51.80;26.52;;;;;;;6.38;100.00;101215.91;5116617;28;20028;-73
2021/01/04 07:38:19;;;;;;;65.72;30.95;;;;;;;6.69;100.00;101209.19;5117360;28;20027;-73
2021/01/04 07:41:20;;;;;;;57.97;30.65;;;;;;;6.81;100.00;101201.44;5116836;28;20020;-74
2021/01/04 07:44:15;;;;;;;76.20;27.50;;;;;;;6.32;100.00;101215.88;5101149;28;20383;-74
2021/01/04 07:47:23;;;;;;;46.05;29.05;;;;;;;6.66;100.00;101198.72;5101330;28;20346;-73
2021/01/04 07:50:37;;;;;;;48.70;27.58;;;;;;;6.63;100.00;101201.34;5101048;28;20110;-73
2021/01/04 07:53:51;;;;;;;36.03;22.80;;;;;;;6.50;100.00;101202.09;5117818;27;20031;-74
2021/01/04 07:56:59;;;;;;;31.63;20.88;;;;;;;6.40;100.00;101198.59;5096418;28;20395;-74
2021/01/04 08:00:06;;;;;;;40.05;22.38;;;;;;;6.44;100.00;101208.16;5116477;28;20042;-74
2021/01/04 08:02:52;;;;;;;61.42;27.42;;;;;;;6.67;100.00;101201.34;5116268;28;20038;-74
2021/01/04 08:06:22;;;;;;;46.97;27.00;;;;;;;6.48;100.00;101183.91;5116645;28;20092;-74
2021/01/04 08:09:22;;;;;;;56.60;26.63;;;;;;;6.82;100.00;101195.34;5115722;28;20027;-74
2021/01/04 08:12:24;;;;;;;50.78;27.73;;;;;;;7.12;100.00;101179.88;5116315;28;20038;-74
2021/01/04 08:15:25;;;;;;;48.67;29.33;;;;;;;7.69;100.00;101185.25;5116565;28;20027;-73
2021/01/04 08:18:17;;;;;;;53.63;29.67;;;;;;;7.57;100.00;101186.09;5115708;28;20032;-74
2021/01/04 08:21:14;;;;;;;45.17;27.23;;;;;;;7.98;100.00;101191.34;5102146;28;20019;-73
2021/01/04 08:24:12;;;;;;;46.50;26.55;;;;;;;8.02;100.00;101190.50;5116126;28;20023;-73
2021/01/04 08:27:06;;;;;;;45.88;27.48;;;;;;;7.59;100.00;101183.50;5115785;28;20092;-73
2021/01/04 08:30:00;;;;;;;44.97;28.25;;;;;;;7.73;100.00;101171.34;5100614;28;20060;-73
2021/01/04 08:32:58;;;;;;;42.63;26.45;;;;;;;8.43;100.00;101163.53;5117004;27;20424;-74
2021/01/04 08:35:46;;;;;;;60.75;30.48;;;;;;;7.99;100.00;101162.66;5115011;28;20031;-73
2021/01/04 08:38:36;;;;;;;54.47;32.13;;;;;;;7.97;100.00;101161.81;5114922;28;20054;-73
2021/01/04 08:41:28;;;;;;;62.03;32.05;;;;;;;8.22;100.00;101168.78;5101243;28;20043;-72
2021/01/04 08:44:19;;;;;;;82.07;40.33;;;;;;;7.39;100.00;101165.19;5115082;28;20449;-73
2021/01/04 08:47:35;;;;;;;98.22;38.75;;;;;;;7.22;100.00;101158.19;5115729;28;20092;-74
2021/01/04 08:50:37;;;;;;;82.70;38.78;;;;;;;7.43;100.00;101153.91;5116852;28;20368;-73
2021/01/04 08:53:23;;;;;;;90.38;35.60;;;;;;;7.07;100.00;101155.56;5117051;28;20023;-74
2021/01/04 08:56:26;;;;;;;51.95;31.58;;;;;;;7.37;100.00;101150.41;5115847;28;20024;-73
2021/01/04 08:59:22;;;;;;;74.43;31.00;;;;;;;7.51;100.00;101152.19;5115435;28;20031;-74
2021/01/04 09:02:13;;;;;;;52.22;27.08;;;;;;;6.97;100.00;101143.34;5115192;28;20067;-74
2021/01/04 09:05:03;;;;;;;45.75;28.15;;;;;;;7.43;100.00;101145.25;5115773;28;20065;-74
2021/01/04 09:07:51;;;;;;;38.35;25.42;;;;;;;8.33;100.00;101137.44;5115226;28;20034;-74
2021/01/04 09:10:41;;;;;;;36.90;24.05;;;;;;;7.71;100.00;101132.22;5101080;28;20055;-73
2021/01/04 09:13:38;;;;;;;31.65;21.73;;;;;;;8.28;100.00;101128.75;5114794;28;20460;-74
2021/01/04 09:16:23;;;;;;;32.65;21.20;;;;;;;7.86;100.00;101116.59;5114151;28;20031;-73
2021/01/04 09:19:26;;;;;;;31.98;22.83;;;;;;;7.98;100.00;101123.53;5115009;28;20051;-73
2021/01/04 09:22:21;;;;;;;34.78;22.95;;;;;;;8.52;100.00;101126.94;5115565;28;20052;-73
2021/01/04 09:25:23;;;;;;;35.63;24.92;;;;;;;8.42;100.00;101111.31;5100596;28;20461;-73
2021/01/04 09:28:09;;;;;;;43.40;28.52;;;;;;;8.63;100.00;101103.41;5115537;28;20513;-73
2021/01/04 09:30:55;;;;;;;43.50;28.08;;;;;;;8.61;100.00;101092.13;5114910;28;20019;-73
2021/01/04 09:33:49;;;;;;;49.20;30.90;;;;;;;8.59;100.00;101086.00;5114771;28;20027;-73
2021/01/04 09:36:35;;;;;;;49.72;30.55;;;;;;;8.63;100.00;101077.28;5112776;28;20034;-73
2021/01/04 09:39:29;;;;;;;43.05;29.85;;;;;;;8.77;100.00;101075.50;5114757;28;20023;-74
2021/01/04 09:42:23;;;;;;;48.80;30.52;;;;;;;8.12;100.00;101069.59;5115191;28;20035;-74
2021/01/04 09:45:16;;;;;;;48.00;30.38;;;;;;;7.90;100.00;101070.47;5114288;28;20350;-74
2021/01/04 09:48:07;;;;;;;55.20;32.15;;;;;;;7.88;100.00;101057.44;5113160;28;20365;-73
2021/01/04 09:50:57;;;;;;;62.50;36.78;;;;;;;7.74;100.00;101055.72;5114577;28;20070;-73
2021/01/04 09:53:56;;;;;;;66.28;38.97;;;;;;;7.82;100.00;101041.81;5114549;28;20020;-75
2021/01/04 09:56:41;;;;;;;89.10;44.28;;;;;;;8.19;100.00;101043.47;5100583;28;20044;-73
2021/01/04 09:59:28;;;;;;;63.78;41.05;;;;;;;8.56;100.00;101039.88;5113641;28;20028;-74
2021/01/04 10:02:17;;;;;;;86.55;40.35;;;;;;;8.90;100.00;101024.91;5114157;28;20024;-74
2021/01/04 10:05:07;;;;;;;58.58;33.00;;;;;;;8.61;100.00;101024.22;5114400;28;20039;-73
2021/01/04 10:07:53;;;;;;;53.92;32.92;;;;;;;8.89;100.00;101025.81;5116570;28;20445;-74
2021/01/04 10:10:41;;;;;;;49.65;30.38;;;;;;;8.87;100.00;101017.97;5103341;28;20024;-74
2021/01/04 10:13:30;;;;;;;52.13;28.90;;;;;;;8.49;100.00;101021.66;5117408;28;20402;-73
2021/01/04 10:16:23;;;;;;;42.58;26.60;;;;;;;9.05;100.00;101015.22;5117949;28;20027;-73
2021/01/04 10:19:17;;;;;;;46.97;27.75;;;;;;;8.62;100.00;101007.66;5117744;28;20020;-73
2021/01/04 10:22:32;;;;;;;38.72;25.60;;;;;;;8.89;100.00;101004.91;5117858;28;20462;-73
2021/01/04 10:25:35;;;;;;;42.63;27.77;;;;;;;9.08;100.00;101002.16;5118094;28;20096;-74
2021/01/04 10:28:21;;;;;;;40.88;26.10;;;;;;;9.41;100.00;100999.28;5103737;28;20035;-73
2021/01/04 10:31:09;;;;;;;49.47;26.08;;;;;;;8.66;100.00;101007.66;5102603;28;20034;-74
2021/01/04 10:34:07;;;;;;;47.38;29.05;;;;;;;8.79;100.00;100993.63;5118207;28;20024;-73
2021/01/04 10:37:01;;;;;;;40.80;26.05;;;;;;;8.73;100.00;100982.34;5117672;28;20449;-74
2021/01/04 10:39:48;;;;;;;45.40;27.15;;;;;;;8.93;100.00;100983.94;5118601;28;20027;-73
2021/01/04 10:42:37;;;;;;;46.83;26.35;;;;;;;9.02;100.00;100969.97;5117782;28;20027;-74
2021/01/04 10:45:39;;;;;;;42.95;27.80;;;;;;;9.03;100.00;100963.84;5117945;28;20039;-73
2021/01/04 10:48:28;;;;;;;49.35;30.42;;;;;;;9.32;100.00;100967.09;5102349;28;20034;-74
2021/01/04 10:51:20;;;;;;;43.28;26.23;;;;;;;9.31;100.00;100952.31;5102251;28;20532;-74
2021/01/04 10:54:18;;;;;;;41.67;26.73;;;;;;;9.60;100.00;100955.50;5116856;28;20020;-74
2021/01/04 10:57:06;;;;;;;46.72;31.13;;;;;;;10.20;100.00;100952.25;5118103;28;20055;-74
2021/01/04 11:00:04;;;;;;;48.80;31.45;;;;;;;10.16;100.00;100937.47;5103504;28;20016;-74
2021/01/04 11:02:53;;;;;;;66.68;34.38;;;;;;;9.76;100.00;100938.78;5102969;28;20435;-73
2021/01/04 11:05:41;;;;;;;60.40;34.50;;;;;;;10.36;100.00;100935.47;5117837;28;20027;-74
2021/01/04 11:08:31;;;;;;;56.00;33.70;;;;;;;10.92;100.00;100932.03;5116628;28;20065;-73
2021/01/04 11:11:42;;;;;;;52.17;31.95;;;;;;;11.48;100.00;100922.34;5116552;28;20066;-74
2021/01/04 11:14:29;;;;;;;53.63;33.17;;;;;;;11.73;100.00;100909.69;5116784;28;20027;-74
2021/01/04 11:17:23;;;;;;;56.80;33.17;;;;;;;10.98;100.00;100898.75;5116551;28;20415;-74
2021/01/04 11:20:12;;;;;;;58.20;36.00;;;;;;;11.38;100.00;100902.41;5116639;28;20042;-75
2021/01/04 11:23:12;;;;;;;58.30;36.65;;;;;;;11.15;100.00;100901.94;5102260;28;20046;-73
2021/01/04 11:25:58;;;;;;;69.47;40.75;;;;;;;10.39;100.00;100901.38;5117005;28;20015;-74
2021/01/04 11:28:43;;;;;;;91.40;39.50;;;;;;;10.49;100.00;100900.34;5117370;28;20023;-74
2021/01/04 11:31:32;;;;;;;73.13;38.30;;;;;;;10.63;100.00;100900.16;5116860;28;20419;-75
2021/01/04 11:34:18;;;;;;;68.50;39.58;;;;;;;10.79;100.00;100897.28;5101657;28;20027;-73
2021/01/04 11:37:04;;;;;;;66.50;35.03;;;;;;;10.46;100.00;100896.91;5101217;28;20065;-74
2021/01/04 11:39:51;;;;;;;71.18;42.03;;;;;;;11.16;100.00;100890.56;5116495;28;20023;-74
2021/01/04 11:42:36;;;;;;;58.38;34.10;;;;;;;11.15;100.00;100891.47;5117219;28;20038;-73
2021/01/04 11:45:22;;;;;;;58.33;32.55;;;;;;;10.68;100.00;100875.63;5116383;28;20032;-73
2021/01/04 11:48:08;;;;;;;87.72;39.75;;;;;;;10.82;100.00;100871.03;5116864;28;20487;-74
2021/01/04 11:50:54;;;;;;;71.32;38.33;;;;;;;11.35;100.00;100871.00;5116687;28;20035;-73
2021/01/04 11:53:40;;;;;;;102.90;47.25;;;;;;;11.11;100.00;100867.91;5116376;28;20025;-73
2021/01/04 11:56:30;;;;;;;81.03;42.85;;;;;;;10.81;100.00;100858.81;5116349;28;20073;-74
2021/01/04 11:59:16;;;;;;;83.63;45.67;;;;;;;11.62;100.00;100864.41;5116482;28;20065;-73
2021/01/04 12:02:03;;;;;;;69.32;41.03;;;;;;;11.45;100.00;100861.19;5116489;28;20089;-73
2021/01/04 12:04:49;;;;;;;66.68;40.40;;;;;;;11.63;100.00;100869.63;5115859;28;20055;-74
2021/01/04 12:07:35;;;;;;;68.05;42.60;;;;;;;11.95;100.00;100875.09;5117497;28;20123;-74
2021/01/04 12:10:22;;;;;;;68.93;45.38;;;;;;;12.21;100.00;100858.75;5116672;28;20108;-74
2021/01/04 12:13:09;;;;;;;73.50;47.20;;;;;;;12.06;100.00;100854.69;5116080;28;20019;-74
2021/01/04 12:15:55;;;;;;;66.78;45.00;;;;;;;12.65;100.00;100856.88;5115891;28;20073;-74
2021/01/04 12:18:41;;;;;;;70.50;45.88;;;;;;;12.54;100.00;100842.25;5115924;28;20051;-74
2021/01/04 12:21:26;;;;;;;72.85;49.05;;;;;;;12.25;100.00;100837.66;5116023;28;20067;-74
2021/01/04 12:24:12;;;;;;;76.93;50.80;;;;;;;12.31;100.00;100837.53;5116274;28;20491;-74
2021/01/04 12:26:58;;;;;;;81.30;55.00;;;;;;;12.41;100.00;100831.16;5116376;28;20015;-74
2021/01/04 12:29:49;;;;;;;67.85;47.13;;;;;;;12.19;100.00;100835.19;5115053;28;20055;-74
2021/01/04 12:32:35;;;;;;;72.25;48.42;;;;;;;12.64;100.00;100834.13;5101137;28;20041;-73
2021/01/04 12:35:21;;;;;;;73.22;49.20;;;;;;;12.53;100.00;100836.13;5115382;28;20055;-73
2021/01/04 12:38:07;;;;;;;78.00;52.83;;;;;;;12.63;100.00;100823.63;5115545;28;20050;-74
2021/01/04 12:40:53;;;;;;;76.10;54.05;;;;;;;12.70;100.00;100817.34;5116127;28;20485;-74
2021/01/04 12:43:42;;;;;;;94.50;61.30;;;;;;;12.54;100.00;100811.56;5116039;28;20020;-74
2021/01/04 12:46:27;;;;;;;92.90;59.38;;;;;;;12.76;100.00;100818.03;5115037;28;20016;-73
2021/01/04 12:49:17;;;;;;;81.85;53.97;;;;;;;12.88;100.00;100809.84;5115328;28;20019;-74
2021/01/04 12:52:13;;;;;;;84.15;55.83;;;;;;;12.98;100.00;100810.53;5115372;28;20051;-74
2021/01/04 12:54:58;;;;;;;81.95;53.15;;;;;;;12.79;100.00;100806.59;5114564;28;20361;-73
2021/01/04 12:57:47;;;;;;;83.05;57.55;;;;;;;12.85;100.00;100809.03;5114197;28;20476;-73
2021/01/04 13:00:35;;;;;;;79.32;53.05;;;;;;;13.45;100.00;100816.22;5115172;28;20028;-74
2021/01/04 13:03:21;;;;;;;74.88;47.88;;;;;;;13.35;100.00;100806.84;5113656;28;20023;-75
2021/01/04 13:06:07;;;;;;;90.75;51.97;;;;;;;12.89;100.00;100808.06;5114882;28;20057;-74
2021/01/04 13:08:52;;;;;;;92.28;53.40;;;;;;;13.25;100.00;100801.88;5114720;28;20024;-75
2021/01/04 13:11:38;;;;;;;87.70;53.17;;;;;;;13.28;100.00;100801.81;5115168;28;20441;-74
2021/01/04 13:14:24;;;;;;;77.10;49.03;;;;;;;13.35;100.00;100791.06;5114801;28;20023;-73
2021/01/04 13:17:10;;;;;;;75.50;49.78;;;;;;;13.22;100.00;100794.94;5114198;28;20047;-74